sensor_id;sensor_type;location;lat;lon;timestamp;temperature;humidity
71668;DHT22;59504;54.806;9.640;2023-02-13T00:00:36;7.00;71.50
71668;DHT22;59504;54.806;9.640;2023-02-13T00:02:57;7.00;71.50
71668;DHT22;59504;54.806;9.640;2023-02-13T00:05:18;7.00;71.50
71668;DHT22;59504;54.806;9.640;2023-02-13T00:07:39;7.00;72.30
71668;DHT22;59504;54.806;9.640;2023-02-13T00:10:00;6.90;71.50
71668;DHT22;59504;54.806;9.640;2023-02-13T00:12:21;6.90;71.50
71668;DHT22;59504;54.806;9.640;2023-02-13T00:14:42;7.00;72.30
71668;DHT22;59504;54.806;9.640;2023-02-13T00:17:04;6.90;71.50
71668;DHT22;59504;54.806;9.640;2023-02-13T00:19:25;6.90;71.50
71668;DHT22;59504;54.806;9.640;2023-02-13T00:21:46;6.90;71.60
71668;DHT22;59504;54.806;9.640;2023-02-13T00:24:06;6.90;71.50
71668;DHT22;59504;54.806;9.640;2023-02-13T00:26:27;6.90;71.50
71668;DHT22;59504;54.806;9.640;2023-02-13T00:28:48;6.90;72.30
71668;DHT22;59504;54.806;9.640;2023-02-13T00:31:14;6.90;71.60
71668;DHT22;59504;54.806;9.640;2023-02-13T00:33:36;6.90;71.60
71668;DHT22;59504;54.806;9.640;2023-02-13T00:36:11;6.90;71.60
71668;DHT22;59504;54.806;9.640;2023-02-13T00:38:32;6.90;71.60
71668;DHT22;59504;54.806;9.640;2023-02-13T00:40:53;6.80;71.60
71668;DHT22;59504;54.806;9.640;2023-02-13T00:43:14;6.90;71.70
71668;DHT22;59504;54.806;9.640;2023-02-13T00:45:35;6.80;71.70
71668;DHT22;59504;54.806;9.640;2023-02-13T00:47:56;6.80;71.70
71668;DHT22;59504;54.806;9.640;2023-02-13T00:50:17;6.80;71.70
71668;DHT22;59504;54.806;9.640;2023-02-13T00:52:38;6.80;71.80
71668;DHT22;59504;54.806;9.640;2023-02-13T00:55:00;6.80;71.70
71668;DHT22;59504;54.806;9.640;2023-02-13T00:57:21;6.90;71.90
71668;DHT22;59504;54.806;9.640;2023-02-13T00:59:42;6.90;71.90
71668;DHT22;59504;54.806;9.640;2023-02-13T01:02:02;6.80;71.90
71668;DHT22;59504;54.806;9.640;2023-02-13T01:04:23;6.80;71.90
71668;DHT22;59504;54.806;9.640;2023-02-13T01:06:44;6.80;71.90
71668;DHT22;59504;54.806;9.640;2023-02-13T01:09:05;6.80;71.90
71668;DHT22;59504;54.806;9.640;2023-02-13T01:11:26;6.70;71.90
71668;DHT22;59504;54.806;9.640;2023-02-13T01:13:47;6.70;71.80
71668;DHT22;59504;54.806;9.640;2023-02-13T01:16:08;6.70;71.80
71668;DHT22;59504;54.806;9.640;2023-02-13T01:18:29;6.70;71.90
71668;DHT22;59504;54.806;9.640;2023-02-13T01:21:05;6.80;71.90
71668;DHT22;59504;54.806;9.640;2023-02-13T01:23:34;6.80;71.80
71668;DHT22;59504;54.806;9.640;2023-02-13T01:25:55;6.70;71.80
71668;DHT22;59504;54.806;9.640;2023-02-13T01:28:16;6.70;71.80
71668;DHT22;59504;54.806;9.640;2023-02-13T01:30:37;6.70;71.80
71668;DHT22;59504;54.806;9.640;2023-02-13T01:32:58;6.60;71.70
71668;DHT22;59504;54.806;9.640;2023-02-13T01:35:19;6.60;71.70
71668;DHT22;59504;54.806;9.640;2023-02-13T01:37:41;6.60;71.60
71668;DHT22;59504;54.806;9.640;2023-02-13T01:40:02;6.60;71.70
71668;DHT22;59504;54.806;9.640;2023-02-13T01:42:29;6.60;71.60
71668;DHT22;59504;54.806;9.640;2023-02-13T01:44:54;6.60;71.70
71668;DHT22;59504;54.806;9.640;2023-02-13T01:47:37;6.60;71.60
71668;DHT22;59504;54.806;9.640;2023-02-13T01:52:45;6.60;71.60
71668;DHT22;59504;54.806;9.640;2023-02-13T01:55:08;6.60;71.60
71668;DHT22;59504;54.806;9.640;2023-02-13T01:57:31;6.60;71.60
71668;DHT22;59504;54.806;9.640;2023-02-13T01:59:58;6.60;71.60
71668;DHT22;59504;54.806;9.640;2023-02-13T02:02:21;6.60;71.60
71668;DHT22;59504;54.806;9.640;2023-02-13T02:04:44;6.50;71.40
71668;DHT22;59504;54.806;9.640;2023-02-13T02:07:13;6.50;71.20
71668;DHT22;59504;54.806;9.640;2023-02-13T02:09:37;6.50;72.00
71668;DHT22;59504;54.806;9.640;2023-02-13T02:12:25;6.50;71.20
71668;DHT22;59504;54.806;9.640;2023-02-13T02:14:48;6.50;71.00
71668;DHT22;59504;54.806;9.640;2023-02-13T02:17:10;6.50;71.20
71668;DHT22;59504;54.806;9.640;2023-02-13T02:19:41;6.60;71.20
71668;DHT22;59504;54.806;9.640;2023-02-13T02:25:08;6.50;71.10
71668;DHT22;59504;54.806;9.640;2023-02-13T02:40:20;6.50;71.10
71668;DHT22;59504;54.806;9.640;2023-02-13T02:45:22;6.50;71.00
71668;DHT22;59504;54.806;9.640;2023-02-13T02:48:06;6.50;71.00
71668;DHT22;59504;54.806;9.640;2023-02-13T02:53:44;6.50;70.80
71668;DHT22;59504;54.806;9.640;2023-02-13T02:58:59;6.40;70.80
71668;DHT22;59504;54.806;9.640;2023-02-13T03:01:40;6.50;70.70
71668;DHT22;59504;54.806;9.640;2023-02-13T03:04:45;6.50;70.90
71668;DHT22;59504;54.806;9.640;2023-02-13T03:07:26;6.40;70.70
71668;DHT22;59504;54.806;9.640;2023-02-13T03:10:05;6.40;70.70
71668;DHT22;59504;54.806;9.640;2023-02-13T03:12:54;6.40;70.50
71668;DHT22;59504;54.806;9.640;2023-02-13T03:15:41;6.40;70.70
71668;DHT22;59504;54.806;9.640;2023-02-13T03:18:21;6.40;70.90
71668;DHT22;59504;54.806;9.640;2023-02-13T03:21:15;6.40;70.90
71668;DHT22;59504;54.806;9.640;2023-02-13T03:27:17;6.40;70.90
71668;DHT22;59504;54.806;9.640;2023-02-13T03:30:15;6.40;70.70
71668;DHT22;59504;54.806;9.640;2023-02-13T03:35:35;6.40;70.80
71668;DHT22;59504;54.806;9.640;2023-02-13T03:38:21;6.40;70.90
71668;DHT22;59504;54.806;9.640;2023-02-13T03:40:52;6.40;70.90
71668;DHT22;59504;54.806;9.640;2023-02-13T03:46:33;6.40;70.90
71668;DHT22;59504;54.806;9.640;2023-02-13T03:48:56;6.40;70.90
71668;DHT22;59504;54.806;9.640;2023-02-13T03:51:45;6.40;71.00
71668;DHT22;59504;54.806;9.640;2023-02-13T03:54:32;6.40;71.00
71668;DHT22;59504;54.806;9.640;2023-02-13T03:57:15;6.30;71.60
71668;DHT22;59504;54.806;9.640;2023-02-13T03:59:57;6.30;70.90
71668;DHT22;59504;54.806;9.640;2023-02-13T04:02:23;6.30;70.90
71668;DHT22;59504;54.806;9.640;2023-02-13T04:04:50;6.30;71.00
71668;DHT22;59504;54.806;9.640;2023-02-13T04:07:17;6.30;71.00
71668;DHT22;59504;54.806;9.640;2023-02-13T04:09:51;6.30;71.00
71668;DHT22;59504;54.806;9.640;2023-02-13T04:12:15;6.40;71.00
71668;DHT22;59504;54.806;9.640;2023-02-13T04:17:18;6.30;71.00
71668;DHT22;59504;54.806;9.640;2023-02-13T04:19:41;6.30;71.00
71668;DHT22;59504;54.806;9.640;2023-02-13T04:22:02;6.30;71.10
71668;DHT22;59504;54.806;9.640;2023-02-13T04:24:24;6.30;71.10
71668;DHT22;59504;54.806;9.640;2023-02-13T04:26:45;6.30;71.20
71668;DHT22;59504;54.806;9.640;2023-02-13T04:29:06;6.30;71.10
71668;DHT22;59504;54.806;9.640;2023-02-13T04:31:28;6.40;71.10
71668;DHT22;59504;54.806;9.640;2023-02-13T04:33:48;6.30;71.10
71668;DHT22;59504;54.806;9.640;2023-02-13T04:36:09;6.30;71.10
71668;DHT22;59504;54.806;9.640;2023-02-13T04:38:30;6.30;71.10
71668;DHT22;59504;54.806;9.640;2023-02-13T04:40:51;6.30;71.20
71668;DHT22;59504;54.806;9.640;2023-02-13T04:43:12;6.30;71.20
71668;DHT22;59504;54.806;9.640;2023-02-13T04:45:33;6.30;71.20
71668;DHT22;59504;54.806;9.640;2023-02-13T04:47:55;6.30;71.20
71668;DHT22;59504;54.806;9.640;2023-02-13T04:50:17;6.30;71.20
71668;DHT22;59504;54.806;9.640;2023-02-13T04:52:38;6.40;71.30
71668;DHT22;59504;54.806;9.640;2023-02-13T04:54:59;6.30;71.20
71668;DHT22;59504;54.806;9.640;2023-02-13T04:57:20;6.30;71.20
71668;DHT22;59504;54.806;9.640;2023-02-13T04:59:41;6.30;71.20
71668;DHT22;59504;54.806;9.640;2023-02-13T05:02:02;6.30;71.20
71668;DHT22;59504;54.806;9.640;2023-02-13T05:04:22;6.30;71.30
71668;DHT22;59504;54.806;9.640;2023-02-13T05:06:43;6.30;71.30
71668;DHT22;59504;54.806;9.640;2023-02-13T05:09:04;6.30;71.30
71668;DHT22;59504;54.806;9.640;2023-02-13T05:11:33;6.30;71.30
71668;DHT22;59504;54.806;9.640;2023-02-13T05:13:54;6.30;71.20
71668;DHT22;59504;54.806;9.640;2023-02-13T05:16:15;6.30;71.30
71668;DHT22;59504;54.806;9.640;2023-02-13T05:18:36;6.30;71.20
71668;DHT22;59504;54.806;9.640;2023-02-13T05:20:57;6.30;71.30
71668;DHT22;59504;54.806;9.640;2023-02-13T05:23:36;6.30;71.30
71668;DHT22;59504;54.806;9.640;2023-02-13T05:25:57;6.30;71.30
71668;DHT22;59504;54.806;9.640;2023-02-13T05:28:18;6.30;71.30
71668;DHT22;59504;54.806;9.640;2023-02-13T05:30:58;6.30;71.30
71668;DHT22;59504;54.806;9.640;2023-02-13T05:33:19;6.30;71.30
71668;DHT22;59504;54.806;9.640;2023-02-13T05:35:39;6.40;71.40
71668;DHT22;59504;54.806;9.640;2023-02-13T05:38:00;6.40;71.40
71668;DHT22;59504;54.806;9.640;2023-02-13T05:40:21;6.30;71.40
71668;DHT22;59504;54.806;9.640;2023-02-13T05:42:42;6.30;71.40
71668;DHT22;59504;54.806;9.640;2023-02-13T05:45:03;6.30;71.50
71668;DHT22;59504;54.806;9.640;2023-02-13T05:47:24;6.30;71.60
71668;DHT22;59504;54.806;9.640;2023-02-13T05:49:45;6.30;71.50
71668;DHT22;59504;54.806;9.640;2023-02-13T05:52:06;6.30;71.50
71668;DHT22;59504;54.806;9.640;2023-02-13T05:54:27;6.40;71.60
71668;DHT22;59504;54.806;9.640;2023-02-13T05:56:48;6.30;71.50
71668;DHT22;59504;54.806;9.640;2023-02-13T05:59:09;6.30;71.60
71668;DHT22;59504;54.806;9.640;2023-02-13T06:01:30;6.30;71.60
71668;DHT22;59504;54.806;9.640;2023-02-13T06:03:53;6.30;71.60
71668;DHT22;59504;54.806;9.640;2023-02-13T06:06:14;6.30;71.60
71668;DHT22;59504;54.806;9.640;2023-02-13T06:08:36;6.20;71.50
71668;DHT22;59504;54.806;9.640;2023-02-13T06:10:56;6.30;71.60
71668;DHT22;59504;54.806;9.640;2023-02-13T06:13:18;6.30;71.50
71668;DHT22;59504;54.806;9.640;2023-02-13T06:15:39;6.40;71.50
71668;DHT22;59504;54.806;9.640;2023-02-13T06:18:07;6.30;71.50
71668;DHT22;59504;54.806;9.640;2023-02-13T06:20:28;6.30;71.50
71668;DHT22;59504;54.806;9.640;2023-02-13T06:22:49;6.30;71.50
71668;DHT22;59504;54.806;9.640;2023-02-13T06:25:10;6.30;71.50
71668;DHT22;59504;54.806;9.640;2023-02-13T06:27:33;6.20;71.40
71668;DHT22;59504;54.806;9.640;2023-02-13T06:29:53;6.20;71.40
71668;DHT22;59504;54.806;9.640;2023-02-13T06:32:14;6.20;71.40
71668;DHT22;59504;54.806;9.640;2023-02-13T06:34:35;6.20;71.40
71668;DHT22;59504;54.806;9.640;2023-02-13T06:36:56;6.30;71.50
71668;DHT22;59504;54.806;9.640;2023-02-13T06:39:17;6.30;71.60
71668;DHT22;59504;54.806;9.640;2023-02-13T06:41:38;6.20;71.50
71668;DHT22;59504;54.806;9.640;2023-02-13T06:43:59;6.20;71.50
71668;DHT22;59504;54.806;9.640;2023-02-13T06:46:20;6.30;71.60
71668;DHT22;59504;54.806;9.640;2023-02-13T06:48:41;6.20;71.50
71668;DHT22;59504;54.806;9.640;2023-02-13T06:51:02;6.30;71.70
71668;DHT22;59504;54.806;9.640;2023-02-13T06:53:23;6.20;71.50
71668;DHT22;59504;54.806;9.640;2023-02-13T06:55:45;6.30;71.70
71668;DHT22;59504;54.806;9.640;2023-02-13T06:58:06;6.30;71.70
71668;DHT22;59504;54.806;9.640;2023-02-13T07:00:26;6.20;71.60
71668;DHT22;59504;54.806;9.640;2023-02-13T07:02:48;6.20;71.60
71668;DHT22;59504;54.806;9.640;2023-02-13T07:05:09;6.20;71.60
71668;DHT22;59504;54.806;9.640;2023-02-13T07:07:35;6.20;71.80
71668;DHT22;59504;54.806;9.640;2023-02-13T07:09:56;6.20;71.60
71668;DHT22;59504;54.806;9.640;2023-02-13T07:12:17;6.20;71.60
71668;DHT22;59504;54.806;9.640;2023-02-13T07:14:38;6.20;71.60
71668;DHT22;59504;54.806;9.640;2023-02-13T07:16:59;6.20;71.60
71668;DHT22;59504;54.806;9.640;2023-02-13T07:19:20;6.20;71.60
71668;DHT22;59504;54.806;9.640;2023-02-13T07:21:41;6.20;71.60
71668;DHT22;59504;54.806;9.640;2023-02-13T07:24:02;6.30;71.70
71668;DHT22;59504;54.806;9.640;2023-02-13T07:26:23;6.20;71.60
71668;DHT22;59504;54.806;9.640;2023-02-13T07:28:46;6.20;71.60
71668;DHT22;59504;54.806;9.640;2023-02-13T07:31:07;6.20;71.70
71668;DHT22;59504;54.806;9.640;2023-02-13T07:33:27;6.30;71.70
71668;DHT22;59504;54.806;9.640;2023-02-13T07:35:50;6.20;71.70
71668;DHT22;59504;54.806;9.640;2023-02-13T07:38:11;6.20;71.70
71668;DHT22;59504;54.806;9.640;2023-02-13T07:40:34;6.30;71.80
71668;DHT22;59504;54.806;9.640;2023-02-13T07:42:58;6.30;71.80
71668;DHT22;59504;54.806;9.640;2023-02-13T07:45:19;6.30;71.80
71668;DHT22;59504;54.806;9.640;2023-02-13T07:47:41;6.30;71.70
71668;DHT22;59504;54.806;9.640;2023-02-13T07:50:03;6.30;71.80
71668;DHT22;59504;54.806;9.640;2023-02-13T07:52:25;6.30;71.80
71668;DHT22;59504;54.806;9.640;2023-02-13T07:54:46;6.40;71.90
71668;DHT22;59504;54.806;9.640;2023-02-13T07:57:07;6.30;71.90
71668;DHT22;59504;54.806;9.640;2023-02-13T07:59:28;6.30;71.90
71668;DHT22;59504;54.806;9.640;2023-02-13T08:01:49;6.30;71.90
71668;DHT22;59504;54.806;9.640;2023-02-13T08:04:12;6.30;71.90
71668;DHT22;59504;54.806;9.640;2023-02-13T08:06:38;6.30;71.90
71668;DHT22;59504;54.806;9.640;2023-02-13T08:08:59;6.30;71.90
71668;DHT22;59504;54.806;9.640;2023-02-13T08:11:38;6.40;72.00
71668;DHT22;59504;54.806;9.640;2023-02-13T08:14:14;6.40;72.00
71668;DHT22;59504;54.806;9.640;2023-02-13T08:16:38;6.40;72.00
71668;DHT22;59504;54.806;9.640;2023-02-13T08:18:59;6.40;72.10
71668;DHT22;59504;54.806;9.640;2023-02-13T08:21:23;6.40;71.80
71668;DHT22;59504;54.806;9.640;2023-02-13T08:23:47;6.40;71.90
71668;DHT22;59504;54.806;9.640;2023-02-13T08:26:08;6.50;72.00
71668;DHT22;59504;54.806;9.640;2023-02-13T08:28:30;6.50;72.00
71668;DHT22;59504;54.806;9.640;2023-02-13T08:30:51;6.50;72.00
71668;DHT22;59504;54.806;9.640;2023-02-13T08:33:12;6.60;72.00
71668;DHT22;59504;54.806;9.640;2023-02-13T08:35:33;6.50;72.00
71668;DHT22;59504;54.806;9.640;2023-02-13T08:37:54;6.50;72.70
71668;DHT22;59504;54.806;9.640;2023-02-13T08:40:15;6.60;72.00
71668;DHT22;59504;54.806;9.640;2023-02-13T08:42:37;6.60;72.00
71668;DHT22;59504;54.806;9.640;2023-02-13T08:45:01;6.60;71.90
71668;DHT22;59504;54.806;9.640;2023-02-13T08:47:24;6.60;71.90
71668;DHT22;59504;54.806;9.640;2023-02-13T08:49:45;6.60;71.80
71668;DHT22;59504;54.806;9.640;2023-02-13T08:52:06;6.60;71.70
71668;DHT22;59504;54.806;9.640;2023-02-13T08:54:27;6.70;71.70
71668;DHT22;59504;54.806;9.640;2023-02-13T08:56:48;6.70;71.60
71668;DHT22;59504;54.806;9.640;2023-02-13T08:59:09;6.70;71.70
71668;DHT22;59504;54.806;9.640;2023-02-13T09:01:30;6.70;71.60
71668;DHT22;59504;54.806;9.640;2023-02-13T09:03:51;6.80;71.60
71668;DHT22;59504;54.806;9.640;2023-02-13T09:06:12;6.80;71.50
71668;DHT22;59504;54.806;9.640;2023-02-13T09:08:34;6.90;71.60
71668;DHT22;59504;54.806;9.640;2023-02-13T09:10:58;6.90;71.50
71668;DHT22;59504;54.806;9.640;2023-02-13T09:13:21;6.90;71.50
71668;DHT22;59504;54.806;9.640;2023-02-13T09:15:42;6.90;71.40
71668;DHT22;59504;54.806;9.640;2023-02-13T09:18:03;7.10;71.40
71668;DHT22;59504;54.806;9.640;2023-02-13T09:20:24;7.00;71.10
71668;DHT22;59504;54.806;9.640;2023-02-13T09:22:45;7.00;71.00
71668;DHT22;59504;54.806;9.640;2023-02-13T09:25:07;7.10;71.00
71668;DHT22;59504;54.806;9.640;2023-02-13T09:29:38;7.10;70.80
71668;DHT22;59504;54.806;9.640;2023-02-13T09:32:03;7.20;70.70
71668;DHT22;59504;54.806;9.640;2023-02-13T09:34:25;7.30;70.40
71668;DHT22;59504;54.806;9.640;2023-02-13T09:36:51;7.30;70.40
71668;DHT22;59504;54.806;9.640;2023-02-13T09:39:12;7.30;70.10
71668;DHT22;59504;54.806;9.640;2023-02-13T09:41:38;7.30;70.10
71668;DHT22;59504;54.806;9.640;2023-02-13T09:48:58;7.40;69.50
71668;DHT22;59504;54.806;9.640;2023-02-13T09:51:21;7.50;69.50
71668;DHT22;59504;54.806;9.640;2023-02-13T09:53:53;7.50;69.30
71668;DHT22;59504;54.806;9.640;2023-02-13T09:56:44;7.50;68.30
71668;DHT22;59504;54.806;9.640;2023-02-13T10:02:02;7.60;68.40
71668;DHT22;59504;54.806;9.640;2023-02-13T10:09:58;7.70;67.40
71668;DHT22;59504;54.806;9.640;2023-02-13T10:12:45;7.70;67.20
71668;DHT22;59504;54.806;9.640;2023-02-13T10:17:53;7.70;66.10
71668;DHT22;59504;54.806;9.640;2023-02-13T10:22:53;7.80;65.30
71668;DHT22;59504;54.806;9.640;2023-02-13T10:25:29;7.80;65.30
71668;DHT22;59504;54.806;9.640;2023-02-13T10:27:54;7.80;64.80
71668;DHT22;59504;54.806;9.640;2023-02-13T10:30:27;7.90;64.60
71668;DHT22;59504;54.806;9.640;2023-02-13T10:32:58;7.80;63.80
71668;DHT22;59504;54.806;9.640;2023-02-13T10:35:40;7.80;63.90
71668;DHT22;59504;54.806;9.640;2023-02-13T10:38:17;7.80;62.90
71668;DHT22;59504;54.806;9.640;2023-02-13T10:40:57;7.90;63.50
71668;DHT22;59504;54.806;9.640;2023-02-13T10:43:26;7.90;63.30
71668;DHT22;59504;54.806;9.640;2023-02-13T10:45:56;8.00;63.00
71668;DHT22;59504;54.806;9.640;2023-02-13T10:48:52;8.00;63.20
71668;DHT22;59504;54.806;9.640;2023-02-13T10:51:33;8.00;63.00
71668;DHT22;59504;54.806;9.640;2023-02-13T10:54:21;8.00;62.60
71668;DHT22;59504;54.806;9.640;2023-02-13T10:57:12;8.00;62.80
71668;DHT22;59504;54.806;9.640;2023-02-13T11:04:44;8.00;62.20
71668;DHT22;59504;54.806;9.640;2023-02-13T11:07:14;8.00;61.80
71668;DHT22;59504;54.806;9.640;2023-02-13T11:09:40;8.00;61.60
71668;DHT22;59504;54.806;9.640;2023-02-13T11:12:37;8.10;61.30
71668;DHT22;59504;54.806;9.640;2023-02-13T11:15:06;8.00;60.90
71668;DHT22;59504;54.806;9.640;2023-02-13T11:17:35;8.10;61.30
71668;DHT22;59504;54.806;9.640;2023-02-13T11:20:03;8.00;61.10
71668;DHT22;59504;54.806;9.640;2023-02-13T11:22:39;8.10;61.00
71668;DHT22;59504;54.806;9.640;2023-02-13T11:25:19;8.00;61.20
71668;DHT22;59504;54.806;9.640;2023-02-13T11:27:40;8.00;60.60
71668;DHT22;59504;54.806;9.640;2023-02-13T11:30:05;8.00;60.40
71668;DHT22;59504;54.806;9.640;2023-02-13T11:32:33;8.00;60.30
71668;DHT22;59504;54.806;9.640;2023-02-13T11:34:55;8.00;60.40
71668;DHT22;59504;54.806;9.640;2023-02-13T11:37:23;8.00;60.50
71668;DHT22;59504;54.806;9.640;2023-02-13T11:39:46;7.90;60.80
71668;DHT22;59504;54.806;9.640;2023-02-13T11:42:35;7.90;61.00
71668;DHT22;59504;54.806;9.640;2023-02-13T11:45:23;7.90;61.10
71668;DHT22;59504;54.806;9.640;2023-02-13T11:47:48;7.90;61.10
71668;DHT22;59504;54.806;9.640;2023-02-13T11:52:40;7.90;60.90
71668;DHT22;59504;54.806;9.640;2023-02-13T11:55:04;8.00;60.40
71668;DHT22;59504;54.806;9.640;2023-02-13T11:57:36;8.10;60.80
71668;DHT22;59504;54.806;9.640;2023-02-13T11:59:58;8.10;61.30
71668;DHT22;59504;54.806;9.640;2023-02-13T12:02:22;8.00;61.40
71668;DHT22;59504;54.806;9.640;2023-02-13T12:04:44;8.00;60.90
71668;DHT22;59504;54.806;9.640;2023-02-13T12:09:37;8.00;60.80
71668;DHT22;59504;54.806;9.640;2023-02-13T12:12:00;8.00;60.80
71668;DHT22;59504;54.806;9.640;2023-02-13T12:14:37;8.00;60.50
71668;DHT22;59504;54.806;9.640;2023-02-13T12:17:05;8.00;60.00
71668;DHT22;59504;54.806;9.640;2023-02-13T12:19:44;8.00;59.80
71668;DHT22;59504;54.806;9.640;2023-02-13T12:25:00;8.10;59.90
71668;DHT22;59504;54.806;9.640;2023-02-13T12:27:55;8.10;59.70
71668;DHT22;59504;54.806;9.640;2023-02-13T12:47:22;7.90;59.40
71668;DHT22;59504;54.806;9.640;2023-02-13T13:02:39;7.90;60.40
71668;DHT22;59504;54.806;9.640;2023-02-13T13:05:25;7.90;60.30
71668;DHT22;59504;54.806;9.640;2023-02-13T13:28:54;7.80;60.40
71668;DHT22;59504;54.806;9.640;2023-02-13T13:31:16;7.80;60.50
71668;DHT22;59504;54.806;9.640;2023-02-13T13:33:47;7.90;60.70
71668;DHT22;59504;54.806;9.640;2023-02-13T13:36:47;7.80;60.80
71668;DHT22;59504;54.806;9.640;2023-02-13T13:44:51;7.80;60.70
71668;DHT22;59504;54.806;9.640;2023-02-13T13:47:31;7.80;60.70
71668;DHT22;59504;54.806;9.640;2023-02-13T13:50:00;7.80;60.70
71668;DHT22;59504;54.806;9.640;2023-02-13T13:52:40;7.90;60.80
71668;DHT22;59504;54.806;9.640;2023-02-13T14:00:41;7.80;60.50
71668;DHT22;59504;54.806;9.640;2023-02-13T14:03:20;7.80;60.80
71668;DHT22;59504;54.806;9.640;2023-02-13T14:06:04;7.90;61.00
71668;DHT22;59504;54.806;9.640;2023-02-13T14:11:06;7.80;61.10
71668;DHT22;59504;54.806;9.640;2023-02-13T14:13:44;8.00;61.30
71668;DHT22;59504;54.806;9.640;2023-02-13T14:16:09;7.80;61.10
71668;DHT22;59504;54.806;9.640;2023-02-13T14:18:36;7.80;61.00
71668;DHT22;59504;54.806;9.640;2023-02-13T14:21:24;7.80;61.00
71668;DHT22;59504;54.806;9.640;2023-02-13T14:23:46;7.90;61.00
71668;DHT22;59504;54.806;9.640;2023-02-13T14:26:37;7.90;61.10
71668;DHT22;59504;54.806;9.640;2023-02-13T14:31:43;7.80;61.30
71668;DHT22;59504;54.806;9.640;2023-02-13T14:37:12;7.80;61.00
71668;DHT22;59504;54.806;9.640;2023-02-13T14:39:40;7.70;60.80
71668;DHT22;59504;54.806;9.640;2023-02-13T14:42:22;7.70;61.00
71668;DHT22;59504;54.806;9.640;2023-02-13T14:44:45;7.70;60.70
71668;DHT22;59504;54.806;9.640;2023-02-13T14:47:30;7.70;61.00
71668;DHT22;59504;54.806;9.640;2023-02-13T14:49:56;7.70;60.90
71668;DHT22;59504;54.806;9.640;2023-02-13T14:52:33;7.60;61.20
71668;DHT22;59504;54.806;9.640;2023-02-13T14:55:01;7.70;61.20
71668;DHT22;59504;54.806;9.640;2023-02-13T14:57:33;7.60;61.40
71668;DHT22;59504;54.806;9.640;2023-02-13T15:00:07;7.60;61.60
71668;DHT22;59504;54.806;9.640;2023-02-13T15:02:48;7.60;61.90
71668;DHT22;59504;54.806;9.640;2023-02-13T15:05:23;7.50;61.40
71668;DHT22;59504;54.806;9.640;2023-02-13T15:07:50;7.60;62.30
71668;DHT22;59504;54.806;9.640;2023-02-13T15:12:59;7.50;61.20
71668;DHT22;59504;54.806;9.640;2023-02-13T15:15:27;7.50;61.30
71668;DHT22;59504;54.806;9.640;2023-02-13T15:17:57;7.50;61.10
71668;DHT22;59504;54.806;9.640;2023-02-13T15:20:27;7.40;61.20
71668;DHT22;59504;54.806;9.640;2023-02-13T15:22:50;7.50;61.30
71668;DHT22;59504;54.806;9.640;2023-02-13T15:25:43;7.50;61.40
71668;DHT22;59504;54.806;9.640;2023-02-13T15:28:19;7.50;61.50
71668;DHT22;59504;54.806;9.640;2023-02-13T15:31:16;7.50;61.70
71668;DHT22;59504;54.806;9.640;2023-02-13T15:33:49;7.40;61.50
71668;DHT22;59504;54.806;9.640;2023-02-13T15:36:16;7.50;61.60
71668;DHT22;59504;54.806;9.640;2023-02-13T15:38:45;7.50;61.70
71668;DHT22;59504;54.806;9.640;2023-02-13T15:41:21;7.40;61.70
71668;DHT22;59504;54.806;9.640;2023-02-13T15:43:50;7.30;61.70
71668;DHT22;59504;54.806;9.640;2023-02-13T15:46:34;7.30;61.70
71668;DHT22;59504;54.806;9.640;2023-02-13T15:48:58;7.30;61.60
71668;DHT22;59504;54.806;9.640;2023-02-13T15:51:28;7.30;61.70
71668;DHT22;59504;54.806;9.640;2023-02-13T15:56:13;7.20;61.90
71668;DHT22;59504;54.806;9.640;2023-02-13T15:58:34;7.30;62.10
71668;DHT22;59504;54.806;9.640;2023-02-13T16:01:08;7.20;62.20
71668;DHT22;59504;54.806;9.640;2023-02-13T16:03:30;7.30;62.40
71668;DHT22;59504;54.806;9.640;2023-02-13T16:05:52;7.20;62.40
71668;DHT22;59504;54.806;9.640;2023-02-13T16:08:28;7.30;62.50
71668;DHT22;59504;54.806;9.640;2023-02-13T16:13:58;7.10;62.50
71668;DHT22;59504;54.806;9.640;2023-02-13T16:16:20;7.20;62.70
71668;DHT22;59504;54.806;9.640;2023-02-13T16:18:44;7.10;62.80
71668;DHT22;59504;54.806;9.640;2023-02-13T16:21:06;7.10;62.90
71668;DHT22;59504;54.806;9.640;2023-02-13T16:23:28;7.10;63.10
71668;DHT22;59504;54.806;9.640;2023-02-13T16:25:50;7.00;63.00
71668;DHT22;59504;54.806;9.640;2023-02-13T16:28:23;7.10;63.10
71668;DHT22;59504;54.806;9.640;2023-02-13T16:30:58;7.00;63.10
71668;DHT22;59504;54.806;9.640;2023-02-13T16:33:29;7.00;63.10
71668;DHT22;59504;54.806;9.640;2023-02-13T16:35:56;7.00;63.20
71668;DHT22;59504;54.806;9.640;2023-02-13T16:38:41;6.90;63.10
71668;DHT22;59504;54.806;9.640;2023-02-13T16:41:05;6.90;63.00
71668;DHT22;59504;54.806;9.640;2023-02-13T16:51:34;6.90;62.60
71668;DHT22;59504;54.806;9.640;2023-02-13T17:05:12;6.70;62.90
71668;DHT22;59504;54.806;9.640;2023-02-13T17:07:42;6.80;63.00
71668;DHT22;59504;54.806;9.640;2023-02-13T17:10:22;6.60;63.00
71668;DHT22;59504;54.806;9.640;2023-02-13T17:12:47;6.60;63.10
71668;DHT22;59504;54.806;9.640;2023-02-13T17:15:12;6.60;63.10
71668;DHT22;59504;54.806;9.640;2023-02-13T17:17:37;6.50;63.30
71668;DHT22;59504;54.806;9.640;2023-02-13T17:19:58;6.50;63.40
71668;DHT22;59504;54.806;9.640;2023-02-13T17:25:23;6.50;63.60
71668;DHT22;59504;54.806;9.640;2023-02-13T17:27:45;6.50;63.70
71668;DHT22;59504;54.806;9.640;2023-02-13T17:30:06;6.50;63.80
71668;DHT22;59504;54.806;9.640;2023-02-13T17:32:27;6.50;64.00
71668;DHT22;59504;54.806;9.640;2023-02-13T17:34:48;6.50;64.10
71668;DHT22;59504;54.806;9.640;2023-02-13T17:37:19;6.50;64.20
71668;DHT22;59504;54.806;9.640;2023-02-13T17:39:40;6.50;64.30
71668;DHT22;59504;54.806;9.640;2023-02-13T17:42:01;6.60;64.50
71668;DHT22;59504;54.806;9.640;2023-02-13T17:44:22;6.50;64.50
71668;DHT22;59504;54.806;9.640;2023-02-13T17:46:43;6.50;64.50
71668;DHT22;59504;54.806;9.640;2023-02-13T17:49:04;6.60;64.60
71668;DHT22;59504;54.806;9.640;2023-02-13T17:51:25;6.50;64.70
71668;DHT22;59504;54.806;9.640;2023-02-13T17:53:46;6.50;64.80
71668;DHT22;59504;54.806;9.640;2023-02-13T17:56:07;6.40;64.80
71668;DHT22;59504;54.806;9.640;2023-02-13T17:58:30;6.50;65.00
71668;DHT22;59504;54.806;9.640;2023-02-13T18:00:51;6.50;65.10
71668;DHT22;59504;54.806;9.640;2023-02-13T18:03:12;6.40;65.00
71668;DHT22;59504;54.806;9.640;2023-02-13T18:05:33;6.40;65.10
71668;DHT22;59504;54.806;9.640;2023-02-13T18:07:58;6.40;65.10
71668;DHT22;59504;54.806;9.640;2023-02-13T18:10:24;6.40;65.10
71668;DHT22;59504;54.806;9.640;2023-02-13T18:12:47;6.40;65.20
71668;DHT22;59504;54.806;9.640;2023-02-13T18:15:09;6.50;65.20
71668;DHT22;59504;54.806;9.640;2023-02-13T18:17:30;6.40;65.10
71668;DHT22;59504;54.806;9.640;2023-02-13T18:19:51;6.40;65.10
71668;DHT22;59504;54.806;9.640;2023-02-13T18:22:12;6.50;65.20
71668;DHT22;59504;54.806;9.640;2023-02-13T18:27:50;6.40;65.30
71668;DHT22;59504;54.806;9.640;2023-02-13T18:30:15;6.40;65.30
71668;DHT22;59504;54.806;9.640;2023-02-13T18:32:39;6.40;65.30
71668;DHT22;59504;54.806;9.640;2023-02-13T18:35:00;6.40;65.40
71668;DHT22;59504;54.806;9.640;2023-02-13T18:37:22;6.30;65.50